Terminal Aerodrome Forecast
Issued by NWS

Home | Current Version | Previous Version | Graphics & Text | Print | Product List | Glossary On
Versions: 1 2 3 4 5 6 7 8 9 10 11 12 13 14 15 16 17 18 19 20 21
000
FTUS43 KGRB 280520
TAFATW
TAF
KATW 280520Z 2806/2906 15006KT 6SM BR SCT007 BKN070
      TEMPO 2806/2808 4SM -SHRA BR BKN007
     FM280800 15006KT 4SM BR SCT003 BKN010
      TEMPO 2808/2812 1SM -SHRA BR BKN003
     FM281200 16006KT 1SM BR OVC002
     FM281400 18009KT 4SM BR OVC008
     FM281500 18010KT P6SM VCSH BKN008
     FM282000 19011KT P6SM VCSH BKN040
     FM290200 18007KT P6SM VCSH SCT040 BKN080=

USA.gov is the U.S. government's official web portal to all federal, state and local government web resources and services.